sensor_id;sensor_type;location;lat;lon;timestamp;P1;durP1;ratioP1;P2;durP2;ratioP2
58808;SDS011;44579;51.672;7.834;2022-11-11T00:01:53;3.83;;;1.35;;
58808;SDS011;44579;51.672;7.834;2022-11-11T00:04:39;2.85;;;1.45;;
58808;SDS011;44579;51.672;7.834;2022-11-11T00:07:24;1.45;;;1.10;;
58808;SDS011;44579;51.672;7.834;2022-11-11T00:10:10;4.47;;;1.20;;
58808;SDS011;44579;51.672;7.834;2022-11-11T00:12:59;2.90;;;1.45;;
58808;SDS011;44579;51.672;7.834;2022-11-11T00:15:45;2.38;;;0.77;;
58808;SDS011;44579;51.672;7.834;2022-11-11T00:18:31;3.25;;;1.27;;
58808;SDS011;44579;51.672;7.834;2022-11-11T00:21:38;2.15;;;1.35;;
58808;SDS011;44579;51.672;7.834;2022-11-11T00:27:47;4.75;;;1.38;;
58808;SDS011;44579;51.672;7.834;2022-11-11T00:30:33;5.15;;;1.60;;
58808;SDS011;44579;51.672;7.834;2022-11-11T00:33:19;3.30;;;1.27;;
58808;SDS011;44579;51.672;7.834;2022-11-11T00:36:04;5.85;;;1.58;;
58808;SDS011;44579;51.672;7.834;2022-11-11T00:38:50;1.20;;;1.10;;
58808;SDS011;44579;51.672;7.834;2022-11-11T00:41:39;7.63;;;1.92;;
58808;SDS011;44579;51.672;7.834;2022-11-11T00:44:25;6.50;;;2.10;;
58808;SDS011;44579;51.672;7.834;2022-11-11T00:47:10;2.50;;;1.42;;
58808;SDS011;44579;51.672;7.834;2022-11-11T00:50:18;1.23;;;0.88;;
58808;SDS011;44579;51.672;7.834;2022-11-11T00:53:28;3.45;;;1.25;;
58808;SDS011;44579;51.672;7.834;2022-11-11T00:56:17;6.55;;;1.48;;
58808;SDS011;44579;51.672;7.834;2022-11-11T00:59:04;2.23;;;1.13;;
58808;SDS011;44579;51.672;7.834;2022-11-11T01:04:36;6.15;;;1.85;;
58808;SDS011;44579;51.672;7.834;2022-11-11T01:07:22;2.85;;;1.50;;
58808;SDS011;44579;51.672;7.834;2022-11-11T01:10:08;5.50;;;1.75;;
58808;SDS011;44579;51.672;7.834;2022-11-11T01:12:54;3.03;;;1.45;;
58808;SDS011;44579;51.672;7.834;2022-11-11T01:15:58;11.10;;;2.05;;
58808;SDS011;44579;51.672;7.834;2022-11-11T01:18:45;7.47;;;2.75;;
58808;SDS011;44579;51.672;7.834;2022-11-11T01:21:30;5.55;;;1.73;;
58808;SDS011;44579;51.672;7.834;2022-11-11T01:24:16;2.28;;;1.60;;
58808;SDS011;44579;51.672;7.834;2022-11-11T01:27:01;2.63;;;1.55;;
58808;SDS011;44579;51.672;7.834;2022-11-11T01:29:47;3.70;;;1.50;;
58808;SDS011;44579;51.672;7.834;2022-11-11T01:32:33;3.83;;;1.88;;
58808;SDS011;44579;51.672;7.834;2022-11-11T01:35:19;5.30;;;1.88;;
58808;SDS011;44579;51.672;7.834;2022-11-11T01:38:05;3.55;;;1.30;;
58808;SDS011;44579;51.672;7.834;2022-11-11T01:40:51;5.22;;;2.20;;
58808;SDS011;44579;51.672;7.834;2022-11-11T01:43:37;2.30;;;1.50;;
58808;SDS011;44579;51.672;7.834;2022-11-11T01:46:45;9.68;;;1.65;;
58808;SDS011;44579;51.672;7.834;2022-11-11T01:49:53;2.65;;;1.30;;
58808;SDS011;44579;51.672;7.834;2022-11-11T01:52:43;2.13;;;1.35;;
58808;SDS011;44579;51.672;7.834;2022-11-11T01:55:29;6.88;;;1.65;;
58808;SDS011;44579;51.672;7.834;2022-11-11T01:58:15;2.30;;;1.35;;
58808;SDS011;44579;51.672;7.834;2022-11-11T02:01:03;3.00;;;1.77;;
58808;SDS011;44579;51.672;7.834;2022-11-11T02:03:50;7.57;;;2.40;;
58808;SDS011;44579;51.672;7.834;2022-11-11T02:06:58;2.25;;;1.52;;
58808;SDS011;44579;51.672;7.834;2022-11-11T02:09:47;1.98;;;1.30;;
58808;SDS011;44579;51.672;7.834;2022-11-11T02:12:36;2.65;;;1.50;;
58808;SDS011;44579;51.672;7.834;2022-11-11T02:15:40;3.75;;;1.77;;
58808;SDS011;44579;51.672;7.834;2022-11-11T02:18:27;2.50;;;1.63;;
58808;SDS011;44579;51.672;7.834;2022-11-11T02:24:17;3.13;;;1.30;;
58808;SDS011;44579;51.672;7.834;2022-11-11T02:27:05;2.45;;;1.42;;
58808;SDS011;44579;51.672;7.834;2022-11-11T02:29:54;1.52;;;1.05;;
58808;SDS011;44579;51.672;7.834;2022-11-11T02:32:43;2.45;;;1.80;;
58808;SDS011;44579;51.672;7.834;2022-11-11T02:35:35;8.30;;;2.17;;
58808;SDS011;44579;51.672;7.834;2022-11-11T02:38:22;8.38;;;1.50;;
58808;SDS011;44579;51.672;7.834;2022-11-11T02:41:09;6.68;;;1.40;;
58808;SDS011;44579;51.672;7.834;2022-11-11T02:44:13;2.63;;;1.38;;
58808;SDS011;44579;51.672;7.834;2022-11-11T02:46:59;2.35;;;1.17;;
58808;SDS011;44579;51.672;7.834;2022-11-11T02:49:44;4.40;;;1.52;;
58808;SDS011;44579;51.672;7.834;2022-11-11T02:52:30;3.58;;;1.23;;
58808;SDS011;44579;51.672;7.834;2022-11-11T02:55:15;4.22;;;1.48;;
58808;SDS011;44579;51.672;7.834;2022-11-11T02:58:01;3.67;;;1.33;;
58808;SDS011;44579;51.672;7.834;2022-11-11T03:00:46;2.10;;;1.13;;
58808;SDS011;44579;51.672;7.834;2022-11-11T03:03:32;4.95;;;1.55;;
58808;SDS011;44579;51.672;7.834;2022-11-11T03:06:18;6.50;;;1.40;;
58808;SDS011;44579;51.672;7.834;2022-11-11T03:09:03;1.65;;;1.15;;
58808;SDS011;44579;51.672;7.834;2022-11-11T03:11:49;4.60;;;1.38;;
58808;SDS011;44579;51.672;7.834;2022-11-11T03:14:35;3.75;;;1.20;;
58808;SDS011;44579;51.672;7.834;2022-11-11T03:17:21;4.60;;;1.50;;
58808;SDS011;44579;51.672;7.834;2022-11-11T03:20:25;5.50;;;1.30;;
58808;SDS011;44579;51.672;7.834;2022-11-11T03:23:30;4.00;;;1.27;;
58808;SDS011;44579;51.672;7.834;2022-11-11T03:26:15;3.03;;;1.23;;
58808;SDS011;44579;51.672;7.834;2022-11-11T03:29:01;5.63;;;1.70;;
58808;SDS011;44579;51.672;7.834;2022-11-11T03:31:47;4.30;;;1.20;;
58808;SDS011;44579;51.672;7.834;2022-11-11T03:34:33;1.52;;;1.00;;
58808;SDS011;44579;51.672;7.834;2022-11-11T03:37:19;3.92;;;1.10;;
58808;SDS011;44579;51.672;7.834;2022-11-11T03:40:23;1.80;;;1.27;;
58808;SDS011;44579;51.672;7.834;2022-11-11T03:43:08;11.38;;;1.23;;
58808;SDS011;44579;51.672;7.834;2022-11-11T03:45:55;6.53;;;1.45;;
58808;SDS011;44579;51.672;7.834;2022-11-11T03:48:42;4.32;;;1.23;;
58808;SDS011;44579;51.672;7.834;2022-11-11T03:51:27;4.95;;;1.30;;
58808;SDS011;44579;51.672;7.834;2022-11-11T03:54:12;2.75;;;1.27;;
58808;SDS011;44579;51.672;7.834;2022-11-11T03:56:58;2.78;;;1.35;;
58808;SDS011;44579;51.672;7.834;2022-11-11T04:00:02;11.35;;;1.67;;
58808;SDS011;44579;51.672;7.834;2022-11-11T04:03:01;4.30;;;1.60;;
58808;SDS011;44579;51.672;7.834;2022-11-11T04:06:13;6.82;;;1.33;;
58808;SDS011;44579;51.672;7.834;2022-11-11T04:09:17;3.20;;;1.20;;
58808;SDS011;44579;51.672;7.834;2022-11-11T04:12:23;2.50;;;1.30;;
58808;SDS011;44579;51.672;7.834;2022-11-11T04:15:10;5.05;;;1.38;;
58808;SDS011;44579;51.672;7.834;2022-11-11T04:18:14;1.70;;;1.13;;
58808;SDS011;44579;51.672;7.834;2022-11-11T04:21:00;3.58;;;1.52;;
58808;SDS011;44579;51.672;7.834;2022-11-11T04:24:04;5.72;;;1.40;;
58808;SDS011;44579;51.672;7.834;2022-11-11T04:27:10;2.63;;;1.60;;
58808;SDS011;44579;51.672;7.834;2022-11-11T04:29:58;6.55;;;1.42;;
58808;SDS011;44579;51.672;7.834;2022-11-11T04:32:44;4.32;;;1.10;;
58808;SDS011;44579;51.672;7.834;2022-11-11T04:35:31;5.93;;;1.73;;
58808;SDS011;44579;51.672;7.834;2022-11-11T04:38:17;9.48;;;1.33;;
58808;SDS011;44579;51.672;7.834;2022-11-11T04:41:21;3.17;;;1.20;;
58808;SDS011;44579;51.672;7.834;2022-11-11T04:44:12;2.30;;;1.20;;
58808;SDS011;44579;51.672;7.834;2022-11-11T04:47:16;5.57;;;1.23;;
58808;SDS011;44579;51.672;7.834;2022-11-11T04:50:02;2.95;;;1.48;;
58808;SDS011;44579;51.672;7.834;2022-11-11T04:52:51;2.25;;;1.35;;
58808;SDS011;44579;51.672;7.834;2022-11-11T04:55:37;7.10;;;1.80;;
58808;SDS011;44579;51.672;7.834;2022-11-11T04:58:42;1.58;;;1.30;;
58808;SDS011;44579;51.672;7.834;2022-11-11T05:01:28;6.88;;;1.70;;
58808;SDS011;44579;51.672;7.834;2022-11-11T05:04:32;8.23;;;1.52;;
58808;SDS011;44579;51.672;7.834;2022-11-11T05:07:17;12.55;;;2.17;;
58808;SDS011;44579;51.672;7.834;2022-11-11T05:10:23;4.97;;;2.30;;
58808;SDS011;44579;51.672;7.834;2022-11-11T05:13:09;3.58;;;1.58;;
58808;SDS011;44579;51.672;7.834;2022-11-11T05:16:16;3.08;;;1.35;;
58808;SDS011;44579;51.672;7.834;2022-11-11T05:19:26;1.92;;;1.55;;
58808;SDS011;44579;51.672;7.834;2022-11-11T05:25:18;7.85;;;1.50;;
58808;SDS011;44579;51.672;7.834;2022-11-11T05:28:10;1.20;;;1.00;;
58808;SDS011;44579;51.672;7.834;2022-11-11T05:30:55;3.50;;;1.48;;
58808;SDS011;44579;51.672;7.834;2022-11-11T05:33:41;1.65;;;1.00;;
58808;SDS011;44579;51.672;7.834;2022-11-11T05:36:26;2.65;;;1.83;;
58808;SDS011;44579;51.672;7.834;2022-11-11T05:39:14;5.22;;;1.23;;
58808;SDS011;44579;51.672;7.834;2022-11-11T05:44:54;2.80;;;1.20;;
58808;SDS011;44579;51.672;7.834;2022-11-11T05:47:42;2.53;;;1.40;;
58808;SDS011;44579;51.672;7.834;2022-11-11T05:50:28;6.82;;;2.38;;
58808;SDS011;44579;51.672;7.834;2022-11-11T05:53:16;6.53;;;1.17;;
58808;SDS011;44579;51.672;7.834;2022-11-11T05:56:08;2.83;;;1.20;;
58808;SDS011;44579;51.672;7.834;2022-11-11T05:58:57;1.55;;;1.08;;
58808;SDS011;44579;51.672;7.834;2022-11-11T06:01:58;2.72;;;1.15;;
58808;SDS011;44579;51.672;7.834;2022-11-11T06:04:43;3.80;;;1.50;;
58808;SDS011;44579;51.672;7.834;2022-11-11T06:07:29;4.60;;;1.38;;
58808;SDS011;44579;51.672;7.834;2022-11-11T06:10:15;8.57;;;1.55;;
58808;SDS011;44579;51.672;7.834;2022-11-11T06:16:42;1.90;;;1.50;;
58808;SDS011;44579;51.672;7.834;2022-11-11T06:19:44;3.75;;;1.55;;
58808;SDS011;44579;51.672;7.834;2022-11-11T06:22:29;1.90;;;1.50;;
58808;SDS011;44579;51.672;7.834;2022-11-11T06:25:35;3.90;;;0.98;;
58808;SDS011;44579;51.672;7.834;2022-11-11T06:28:40;1.95;;;0.93;;
58808;SDS011;44579;51.672;7.834;2022-11-11T06:31:29;1.98;;;1.17;;
58808;SDS011;44579;51.672;7.834;2022-11-11T06:34:14;3.05;;;1.45;;
58808;SDS011;44579;51.672;7.834;2022-11-11T06:37:01;4.20;;;1.70;;
58808;SDS011;44579;51.672;7.834;2022-11-11T06:39:46;3.97;;;2.03;;
58808;SDS011;44579;51.672;7.834;2022-11-11T06:42:35;3.20;;;1.58;;
58808;SDS011;44579;51.672;7.834;2022-11-11T06:45:22;6.95;;;1.60;;
58808;SDS011;44579;51.672;7.834;2022-11-11T06:48:08;5.07;;;1.40;;
58808;SDS011;44579;51.672;7.834;2022-11-11T06:50:53;3.05;;;1.85;;
58808;SDS011;44579;51.672;7.834;2022-11-11T06:53:40;2.85;;;1.65;;
58808;SDS011;44579;51.672;7.834;2022-11-11T06:56:26;9.20;;;1.80;;
58808;SDS011;44579;51.672;7.834;2022-11-11T06:59:11;5.50;;;1.58;;
58808;SDS011;44579;51.672;7.834;2022-11-11T07:01:57;2.22;;;1.60;;
58808;SDS011;44579;51.672;7.834;2022-11-11T07:04:42;1.85;;;1.02;;
58808;SDS011;44579;51.672;7.834;2022-11-11T07:07:28;7.85;;;1.95;;
58808;SDS011;44579;51.672;7.834;2022-11-11T07:10:14;2.05;;;1.40;;
58808;SDS011;44579;51.672;7.834;2022-11-11T07:13:01;1.67;;;1.10;;
58808;SDS011;44579;51.672;7.834;2022-11-11T07:15:47;1.75;;;1.10;;
58808;SDS011;44579;51.672;7.834;2022-11-11T07:18:32;2.65;;;1.50;;
58808;SDS011;44579;51.672;7.834;2022-11-11T07:21:18;2.80;;;1.42;;
58808;SDS011;44579;51.672;7.834;2022-11-11T07:24:03;4.78;;;1.58;;
58808;SDS011;44579;51.672;7.834;2022-11-11T07:26:49;2.38;;;0.93;;
58808;SDS011;44579;51.672;7.834;2022-11-11T07:29:34;11.27;;;2.13;;
58808;SDS011;44579;51.672;7.834;2022-11-11T07:32:20;3.40;;;1.50;;
58808;SDS011;44579;51.672;7.834;2022-11-11T07:35:05;4.63;;;1.42;;
58808;SDS011;44579;51.672;7.834;2022-11-11T07:37:51;5.22;;;1.27;;
58808;SDS011;44579;51.672;7.834;2022-11-11T07:40:37;6.32;;;1.92;;
58808;SDS011;44579;51.672;7.834;2022-11-11T07:43:22;5.88;;;2.10;;
58808;SDS011;44579;51.672;7.834;2022-11-11T07:46:09;7.50;;;1.83;;
58808;SDS011;44579;51.672;7.834;2022-11-11T07:48:54;3.85;;;1.80;;
58808;SDS011;44579;51.672;7.834;2022-11-11T07:51:40;3.88;;;1.55;;
58808;SDS011;44579;51.672;7.834;2022-11-11T07:54:25;1.95;;;1.42;;
58808;SDS011;44579;51.672;7.834;2022-11-11T07:57:10;10.77;;;2.50;;
58808;SDS011;44579;51.672;7.834;2022-11-11T07:59:56;2.40;;;1.40;;
58808;SDS011;44579;51.672;7.834;2022-11-11T08:02:45;3.53;;;1.60;;
58808;SDS011;44579;51.672;7.834;2022-11-11T08:05:34;4.07;;;1.95;;
58808;SDS011;44579;51.672;7.834;2022-11-11T08:08:19;5.95;;;1.73;;
58808;SDS011;44579;51.672;7.834;2022-11-11T08:11:10;2.55;;;1.60;;
58808;SDS011;44579;51.672;7.834;2022-11-11T08:13:56;2.92;;;1.73;;
58808;SDS011;44579;51.672;7.834;2022-11-11T08:16:41;10.82;;;1.92;;
58808;SDS011;44579;51.672;7.834;2022-11-11T08:19:27;4.50;;;1.60;;
58808;SDS011;44579;51.672;7.834;2022-11-11T08:22:13;6.18;;;1.65;;
58808;SDS011;44579;51.672;7.834;2022-11-11T08:24:58;1.60;;;1.30;;
58808;SDS011;44579;51.672;7.834;2022-11-11T08:27:49;4.32;;;1.40;;
58808;SDS011;44579;51.672;7.834;2022-11-11T08:30:44;7.72;;;1.60;;
58808;SDS011;44579;51.672;7.834;2022-11-11T08:33:29;2.65;;;1.38;;
58808;SDS011;44579;51.672;7.834;2022-11-11T08:36:18;4.75;;;1.83;;
58808;SDS011;44579;51.672;7.834;2022-11-11T08:39:05;1.73;;;1.10;;
58808;SDS011;44579;51.672;7.834;2022-11-11T08:41:51;2.03;;;1.08;;
58808;SDS011;44579;51.672;7.834;2022-11-11T08:44:37;0.75;;;0.70;;
58808;SDS011;44579;51.672;7.834;2022-11-11T08:47:22;3.10;;;1.63;;
58808;SDS011;44579;51.672;7.834;2022-11-11T08:50:09;3.55;;;0.90;;
58808;SDS011;44579;51.672;7.834;2022-11-11T08:52:54;3.95;;;0.70;;
58808;SDS011;44579;51.672;7.834;2022-11-11T08:55:41;3.92;;;1.10;;
58808;SDS011;44579;51.672;7.834;2022-11-11T08:58:26;2.92;;;1.33;;
58808;SDS011;44579;51.672;7.834;2022-11-11T09:01:12;1.00;;;0.70;;
58808;SDS011;44579;51.672;7.834;2022-11-11T09:03:59;0.82;;;0.77;;
58808;SDS011;44579;51.672;7.834;2022-11-11T09:07:05;2.45;;;1.65;;
58808;SDS011;44579;51.672;7.834;2022-11-11T09:09:52;1.42;;;1.10;;
58808;SDS011;44579;51.672;7.834;2022-11-11T09:12:38;1.70;;;1.10;;
58808;SDS011;44579;51.672;7.834;2022-11-11T09:15:24;3.13;;;1.40;;
58808;SDS011;44579;51.672;7.834;2022-11-11T09:18:10;1.73;;;1.20;;
58808;SDS011;44579;51.672;7.834;2022-11-11T09:20:59;1.63;;;0.82;;
58808;SDS011;44579;51.672;7.834;2022-11-11T09:23:45;3.05;;;1.08;;
58808;SDS011;44579;51.672;7.834;2022-11-11T09:26:31;4.18;;;0.77;;
58808;SDS011;44579;51.672;7.834;2022-11-11T09:29:16;0.43;;;0.32;;
58808;SDS011;44579;51.672;7.834;2022-11-11T09:32:03;5.65;;;1.42;;
58808;SDS011;44579;51.672;7.834;2022-11-11T09:34:48;3.75;;;1.23;;
58808;SDS011;44579;51.672;7.834;2022-11-11T09:37:34;0.98;;;0.80;;
58808;SDS011;44579;51.672;7.834;2022-11-11T09:40:20;5.35;;;0.90;;
58808;SDS011;44579;51.672;7.834;2022-11-11T09:43:10;11.10;;;1.20;;
58808;SDS011;44579;51.672;7.834;2022-11-11T09:46:19;1.45;;;1.05;;
58808;SDS011;44579;51.672;7.834;2022-11-11T09:52:35;3.70;;;0.95;;
58808;SDS011;44579;51.672;7.834;2022-11-11T09:55:40;0.70;;;0.70;;
58808;SDS011;44579;51.672;7.834;2022-11-11T09:58:30;2.33;;;1.10;;
58808;SDS011;44579;51.672;7.834;2022-11-11T10:01:23;7.57;;;1.02;;
58808;SDS011;44579;51.672;7.834;2022-11-11T10:04:34;4.63;;;1.10;;
58808;SDS011;44579;51.672;7.834;2022-11-11T10:07:34;6.25;;;1.20;;
58808;SDS011;44579;51.672;7.834;2022-11-11T10:13:32;1.60;;;1.00;;
58808;SDS011;44579;51.672;7.834;2022-11-11T10:19:32;3.85;;;1.25;;
58808;SDS011;44579;51.672;7.834;2022-11-11T10:22:40;2.13;;;0.80;;
58808;SDS011;44579;51.672;7.834;2022-11-11T10:25:27;0.30;;;0.30;;
58808;SDS011;44579;51.672;7.834;2022-11-11T10:28:14;1.52;;;1.02;;
58808;SDS011;44579;51.672;7.834;2022-11-11T10:31:03;1.85;;;1.13;;
58808;SDS011;44579;51.672;7.834;2022-11-11T10:34:01;0.50;;;0.40;;
58808;SDS011;44579;51.672;7.834;2022-11-11T10:36:53;2.83;;;0.95;;
58808;SDS011;44579;51.672;7.834;2022-11-11T10:40:02;1.02;;;0.68;;
58808;SDS011;44579;51.672;7.834;2022-11-11T10:42:55;2.53;;;0.95;;
58808;SDS011;44579;51.672;7.834;2022-11-11T10:48:57;4.03;;;1.13;;
58808;SDS011;44579;51.672;7.834;2022-11-11T10:52:00;4.72;;;1.35;;
58808;SDS011;44579;51.672;7.834;2022-11-11T10:58:04;0.35;;;0.30;;
58808;SDS011;44579;51.672;7.834;2022-11-11T11:00:59;4.55;;;1.33;;
58808;SDS011;44579;51.672;7.834;2022-11-11T11:03:54;3.42;;;1.25;;
58808;SDS011;44579;51.672;7.834;2022-11-11T11:06:49;4.55;;;1.00;;
58808;SDS011;44579;51.672;7.834;2022-11-11T11:09:42;1.67;;;1.00;;
58808;SDS011;44579;51.672;7.834;2022-11-11T11:12:38;4.15;;;1.10;;
58808;SDS011;44579;51.672;7.834;2022-11-11T11:15:30;11.63;;;1.70;;
58808;SDS011;44579;51.672;7.834;2022-11-11T11:18:19;2.85;;;1.20;;
58808;SDS011;44579;51.672;7.834;2022-11-11T11:21:05;3.55;;;1.08;;
58808;SDS011;44579;51.672;7.834;2022-11-11T11:26:44;1.67;;;0.88;;
58808;SDS011;44579;51.672;7.834;2022-11-11T11:32:28;1.73;;;1.02;;
58808;SDS011;44579;51.672;7.834;2022-11-11T11:35:32;2.00;;;0.70;;
58808;SDS011;44579;51.672;7.834;2022-11-11T11:38:38;6.03;;;1.20;;
58808;SDS011;44579;51.672;7.834;2022-11-11T11:44:27;4.30;;;2.00;;
58808;SDS011;44579;51.672;7.834;2022-11-11T11:47:38;4.57;;;0.98;;
58808;SDS011;44579;51.672;7.834;2022-11-11T11:50:52;6.10;;;0.73;;
58808;SDS011;44579;51.672;7.834;2022-11-11T11:57:29;4.20;;;0.95;;
58808;SDS011;44579;51.672;7.834;2022-11-11T12:00:35;1.80;;;0.98;;
58808;SDS011;44579;51.672;7.834;2022-11-11T12:16:23;2.08;;;0.73;;
58808;SDS011;44579;51.672;7.834;2022-11-11T12:22:35;1.63;;;0.75;;
58808;SDS011;44579;51.672;7.834;2022-11-11T12:29:01;1.33;;;0.50;;
58808;SDS011;44579;51.672;7.834;2022-11-11T12:38:41;3.20;;;0.90;;
58808;SDS011;44579;51.672;7.834;2022-11-11T12:44:31;6.57;;;1.13;;
58808;SDS011;44579;51.672;7.834;2022-11-11T12:47:34;1.80;;;0.60;;
58808;SDS011;44579;51.672;7.834;2022-11-11T12:50:38;2.15;;;0.80;;
58808;SDS011;44579;51.672;7.834;2022-11-11T12:53:43;1.15;;;0.73;;
58808;SDS011;44579;51.672;7.834;2022-11-11T13:06:15;1.77;;;0.77;;
58808;SDS011;44579;51.672;7.834;2022-11-11T13:12:23;2.53;;;0.60;;
58808;SDS011;44579;51.672;7.834;2022-11-11T13:15:17;3.38;;;0.93;;
58808;SDS011;44579;51.672;7.834;2022-11-11T13:18:13;7.88;;;0.65;;
58808;SDS011;44579;51.672;7.834;2022-11-11T13:21:05;3.92;;;1.27;;
58808;SDS011;44579;51.672;7.834;2022-11-11T13:23:55;2.22;;;0.73;;
58808;SDS011;44579;51.672;7.834;2022-11-11T13:26:42;1.60;;;0.77;;
58808;SDS011;44579;51.672;7.834;2022-11-11T13:32:53;2.30;;;0.90;;
58808;SDS011;44579;51.672;7.834;2022-11-11T13:36:09;2.40;;;0.80;;
58808;SDS011;44579;51.672;7.834;2022-11-11T13:39:02;1.30;;;0.60;;
58808;SDS011;44579;51.672;7.834;2022-11-11T13:41:48;10.18;;;1.00;;
58808;SDS011;44579;51.672;7.834;2022-11-11T13:44:48;2.05;;;0.57;;
58808;SDS011;44579;51.672;7.834;2022-11-11T13:47:37;1.40;;;0.70;;
58808;SDS011;44579;51.672;7.834;2022-11-11T13:53:27;2.20;;;0.82;;
58808;SDS011;44579;51.672;7.834;2022-11-11T13:56:33;0.93;;;0.63;;
58808;SDS011;44579;51.672;7.834;2022-11-11T13:59:29;1.65;;;0.70;;
58808;SDS011;44579;51.672;7.834;2022-11-11T14:02:33;3.15;;;0.77;;
58808;SDS011;44579;51.672;7.834;2022-11-11T14:05:20;1.48;;;0.50;;
58808;SDS011;44579;51.672;7.834;2022-11-11T14:08:07;5.75;;;0.80;;
58808;SDS011;44579;51.672;7.834;2022-11-11T14:10:53;1.48;;;0.98;;
58808;SDS011;44579;51.672;7.834;2022-11-11T14:13:42;3.83;;;0.90;;
58808;SDS011;44579;51.672;7.834;2022-11-11T14:25:14;1.83;;;0.90;;
58808;SDS011;44579;51.672;7.834;2022-11-11T14:28:18;1.83;;;0.73;;
58808;SDS011;44579;51.672;7.834;2022-11-11T14:37:51;1.00;;;0.52;;
58808;SDS011;44579;51.672;7.834;2022-11-11T14:40:43;5.65;;;0.95;;
58808;SDS011;44579;51.672;7.834;2022-11-11T14:43:33;1.38;;;0.50;;
58808;SDS011;44579;51.672;7.834;2022-11-11T14:46:22;2.92;;;0.68;;
58808;SDS011;44579;51.672;7.834;2022-11-11T14:49:08;4.40;;;0.93;;
58808;SDS011;44579;51.672;7.834;2022-11-11T14:51:57;1.38;;;0.70;;
58808;SDS011;44579;51.672;7.834;2022-11-11T14:55:02;1.63;;;0.90;;
58808;SDS011;44579;51.672;7.834;2022-11-11T15:03:52;3.95;;;0.90;;
58808;SDS011;44579;51.672;7.834;2022-11-11T15:06:41;4.28;;;1.00;;
58808;SDS011;44579;51.672;7.834;2022-11-11T15:10:07;1.15;;;0.77;;
58808;SDS011;44579;51.672;7.834;2022-11-11T15:16:12;4.28;;;1.08;;
58808;SDS011;44579;51.672;7.834;2022-11-11T15:22:28;1.60;;;0.70;;
58808;SDS011;44579;51.672;7.834;2022-11-11T15:28:34;3.85;;;2.00;;
58808;SDS011;44579;51.672;7.834;2022-11-11T15:34:30;2.63;;;1.35;;
58808;SDS011;44579;51.672;7.834;2022-11-11T15:37:29;4.70;;;1.52;;
58808;SDS011;44579;51.672;7.834;2022-11-11T15:40:19;2.55;;;1.15;;
58808;SDS011;44579;51.672;7.834;2022-11-11T15:43:10;6.53;;;1.85;;
58808;SDS011;44579;51.672;7.834;2022-11-11T15:45:59;3.40;;;1.42;;
58808;SDS011;44579;51.672;7.834;2022-11-11T15:48:47;5.55;;;2.00;;
58808;SDS011;44579;51.672;7.834;2022-11-11T15:51:35;5.15;;;2.17;;
58808;SDS011;44579;51.672;7.834;2022-11-11T15:54:22;19.95;;;2.60;;
58808;SDS011;44579;51.672;7.834;2022-11-11T15:57:14;10.20;;;3.58;;
58808;SDS011;44579;51.672;7.834;2022-11-11T16:03:18;6.10;;;1.48;;
58808;SDS011;44579;51.672;7.834;2022-11-11T16:06:15;2.95;;;1.42;;
58808;SDS011;44579;51.672;7.834;2022-11-11T16:09:01;1.98;;;1.45;;
58808;SDS011;44579;51.672;7.834;2022-11-11T16:11:47;6.13;;;1.23;;
58808;SDS011;44579;51.672;7.834;2022-11-11T16:14:38;7.68;;;2.08;;
58808;SDS011;44579;51.672;7.834;2022-11-11T16:17:29;3.50;;;2.00;;
58808;SDS011;44579;51.672;7.834;2022-11-11T16:20:21;9.60;;;2.17;;
58808;SDS011;44579;51.672;7.834;2022-11-11T16:23:14;4.28;;;2.00;;
58808;SDS011;44579;51.672;7.834;2022-11-11T16:26:01;8.07;;;2.35;;
58808;SDS011;44579;51.672;7.834;2022-11-11T16:28:50;23.85;;;3.33;;
58808;SDS011;44579;51.672;7.834;2022-11-11T16:31:38;81.85;;;9.85;;
58808;SDS011;44579;51.672;7.834;2022-11-11T16:37:15;92.13;;;11.63;;
58808;SDS011;44579;51.672;7.834;2022-11-11T16:46:00;35.03;;;6.88;;
58808;SDS011;44579;51.672;7.834;2022-11-11T16:48:49;30.27;;;5.10;;
58808;SDS011;44579;51.672;7.834;2022-11-11T16:51:38;28.48;;;5.85;;
58808;SDS011;44579;51.672;7.834;2022-11-11T16:54:31;15.13;;;5.65;;
58808;SDS011;44579;51.672;7.834;2022-11-11T16:57:25;23.35;;;6.28;;
58808;SDS011;44579;51.672;7.834;2022-11-11T17:00:15;16.05;;;5.43;;
58808;SDS011;44579;51.672;7.834;2022-11-11T17:03:07;22.85;;;5.47;;
58808;SDS011;44579;51.672;7.834;2022-11-11T17:06:09;15.70;;;7.45;;
58808;SDS011;44579;51.672;7.834;2022-11-11T17:08:55;20.13;;;8.35;;
58808;SDS011;44579;51.672;7.834;2022-11-11T17:11:41;21.50;;;9.30;;
58808;SDS011;44579;51.672;7.834;2022-11-11T17:14:35;23.58;;;8.63;;
58808;SDS011;44579;51.672;7.834;2022-11-11T17:17:22;22.73;;;8.63;;
58808;SDS011;44579;51.672;7.834;2022-11-11T17:20:09;26.15;;;9.23;;
58808;SDS011;44579;51.672;7.834;2022-11-11T17:22:57;18.60;;;8.27;;
58808;SDS011;44579;51.672;7.834;2022-11-11T17:25:43;15.43;;;7.72;;
58808;SDS011;44579;51.672;7.834;2022-11-11T17:28:35;25.33;;;7.80;;
58808;SDS011;44579;51.672;7.834;2022-11-11T17:31:21;13.82;;;7.13;;
58808;SDS011;44579;51.672;7.834;2022-11-11T17:34:08;13.20;;;6.72;;
58808;SDS011;44579;51.672;7.834;2022-11-11T17:36:55;16.52;;;6.50;;
58808;SDS011;44579;51.672;7.834;2022-11-11T17:39:40;22.55;;;8.93;;
58808;SDS011;44579;51.672;7.834;2022-11-11T17:42:28;24.13;;;9.68;;
58808;SDS011;44579;51.672;7.834;2022-11-11T17:45:14;17.10;;;9.68;;
58808;SDS011;44579;51.672;7.834;2022-11-11T17:48:00;14.68;;;8.38;;
58808;SDS011;44579;51.672;7.834;2022-11-11T17:50:46;13.68;;;7.72;;
58808;SDS011;44579;51.672;7.834;2022-11-11T17:53:32;18.42;;;9.15;;
58808;SDS011;44579;51.672;7.834;2022-11-11T17:56:20;17.52;;;9.48;;
58808;SDS011;44579;51.672;7.834;2022-11-11T17:59:06;21.30;;;9.98;;
58808;SDS011;44579;51.672;7.834;2022-11-11T18:01:52;24.60;;;9.73;;
58808;SDS011;44579;51.672;7.834;2022-11-11T18:04:37;15.43;;;8.25;;
58808;SDS011;44579;51.672;7.834;2022-11-11T18:07:24;65.57;;;9.50;;
58808;SDS011;44579;51.672;7.834;2022-11-11T18:10:10;11.48;;;6.05;;
58808;SDS011;44579;51.672;7.834;2022-11-11T18:12:56;14.60;;;8.00;;
58808;SDS011;44579;51.672;7.834;2022-11-11T18:15:42;19.63;;;8.43;;
58808;SDS011;44579;51.672;7.834;2022-11-11T18:18:28;14.73;;;8.40;;
58808;SDS011;44579;51.672;7.834;2022-11-11T18:24:06;24.75;;;8.70;;
58808;SDS011;44579;51.672;7.834;2022-11-11T18:26:52;33.30;;;9.60;;
58808;SDS011;44579;51.672;7.834;2022-11-11T18:29:38;13.32;;;7.75;;
58808;SDS011;44579;51.672;7.834;2022-11-11T18:32:24;19.90;;;7.72;;
58808;SDS011;44579;51.672;7.834;2022-11-11T18:35:09;21.00;;;7.65;;
58808;SDS011;44579;51.672;7.834;2022-11-11T18:37:55;13.90;;;6.97;;
58808;SDS011;44579;51.672;7.834;2022-11-11T18:40:40;12.02;;;7.25;;
58808;SDS011;44579;51.672;7.834;2022-11-11T18:43:26;12.65;;;5.95;;
58808;SDS011;44579;51.672;7.834;2022-11-11T18:46:16;9.10;;;5.90;;
58808;SDS011;44579;51.672;7.834;2022-11-11T18:49:04;9.80;;;4.88;;
58808;SDS011;44579;51.672;7.834;2022-11-11T18:51:50;6.93;;;4.63;;
58808;SDS011;44579;51.672;7.834;2022-11-11T18:54:36;18.02;;;4.75;;
58808;SDS011;44579;51.672;7.834;2022-11-11T18:57:21;9.85;;;3.42;;
58808;SDS011;44579;51.672;7.834;2022-11-11T19:00:07;16.27;;;4.15;;
58808;SDS011;44579;51.672;7.834;2022-11-11T19:02:53;9.52;;;4.65;;
58808;SDS011;44579;51.672;7.834;2022-11-11T19:05:38;9.90;;;3.83;;
58808;SDS011;44579;51.672;7.834;2022-11-11T19:08:24;12.65;;;3.92;;
58808;SDS011;44579;51.672;7.834;2022-11-11T19:11:10;9.93;;;4.47;;
58808;SDS011;44579;51.672;7.834;2022-11-11T19:13:55;13.52;;;4.32;;
58808;SDS011;44579;51.672;7.834;2022-11-11T19:16:41;17.10;;;3.97;;
58808;SDS011;44579;51.672;7.834;2022-11-11T19:19:26;11.65;;;3.78;;
58808;SDS011;44579;51.672;7.834;2022-11-11T19:22:12;9.45;;;3.45;;
58808;SDS011;44579;51.672;7.834;2022-11-11T19:24:57;8.30;;;3.33;;
58808;SDS011;44579;51.672;7.834;2022-11-11T19:27:43;6.88;;;3.63;;
58808;SDS011;44579;51.672;7.834;2022-11-11T19:30:29;13.98;;;6.10;;